»·PEaware :: N951J KBUR-KLAS

N951J :: KBUR-KLAS

FLIGHT INFORMATION

Flight Status: Arrived
Operator: Privately registered:
United States
More flights under this callsign
Pilot: Matt B. (29576)
Aircraft: MOONEY M-20 201 202 205 220 ATS MSE
(M20P)
More flights by this aircraft type
Origin: KBUR Bob Hope-Burbank
United States
Destination: KLAS McCarran Intl
United States
More flights between these airports :: More routes between these airports
Route: +VNY3 DAG CRESO4
File this flight plan on PilotEdge
Remarks: I-5 rating
Altitude:
(Current/Filed)
15,000ft
Speed:
(Current/Filed)
175kts
Departed: 16-May-20 10:57 AM
Arrived: 16-May-20 12:25 PM
Distance/Time
Traveled:
194nm/1:28
Distance/Time
To Go:
Arrived

Flight Plot

Page will automatically refresh every two minutes.


Map Options




Map Legend


Flown Route
Filed Route
Departure Airport
Arrival Airport
Navaid (VOR, NDB)
Fix

Horizontal Profiles

Position Reports

Time Latitude Longitude Heading Altitude Ground
Speed
16-May-20 10:26 34.200215 -118.358844 258 719ft 0kts
16-May-20 10:27 34.200215 -118.358844 258 719ft 0kts
16-May-20 10:28 34.200215 -118.358844 257 719ft 0kts
16-May-20 10:30 34.200215 -118.358844 257 719ft 0kts
16-May-20 10:31 34.200215 -118.358844 258 719ft 0kts
16-May-20 10:32 34.200215 -118.358844 257 719ft 0kts
16-May-20 10:33 34.200215 -118.358844 257 719ft 0kts
16-May-20 10:34 34.200215 -118.358844 258 719ft 0kts
16-May-20 10:35 34.200215 -118.358844 257 719ft 0kts
16-May-20 10:36 34.200215 -118.358844 257 719ft 0kts
16-May-20 10:37 34.200215 -118.358844 257 719ft 0kts
16-May-20 10:38 34.200215 -118.358844 257 719ft 0kts
16-May-20 10:39 34.200215 -118.358844 258 719ft 0kts
16-May-20 10:40 34.200215 -118.358844 258 719ft 0kts
16-May-20 10:41 34.200215 -118.358844 258 719ft 0kts
16-May-20 10:42 34.200215 -118.358844 258 719ft 0kts
16-May-20 10:43 34.200215 -118.358844 258 719ft 0kts
16-May-20 10:43 34.200215 -118.358844 258 719ft 0kts
16-May-20 10:45 34.200215 -118.358844 258 719ft 0kts
16-May-20 10:46 34.200215 -118.358844 258 719ft 0kts
16-May-20 10:46 34.200215 -118.358844 258 719ft 0kts
16-May-20 10:47 34.200215 -118.358844 258 719ft 0kts
16-May-20 10:49 34.200282 -118.359018 316 719ft 3kts
16-May-20 10:50 34.201685 -118.359263 78 725ft 0kts
16-May-20 10:50 34.201690 -118.359232 81 725ft 2kts
16-May-20 10:51 34.204430 -118.359426 347 734ft 15kts
16-May-20 10:52 34.209269 -118.360780 348 756ft 18kts
16-May-20 10:53 34.211935 -118.361388 29 766ft 0kts
16-May-20 10:54 34.211935 -118.361388 29 766ft 0kts
16-May-20 10:55 34.211935 -118.361388 29 766ft 0kts
16-May-20 10:56 34.202735 -118.357796 168 878ft 91kts
16-May-20 10:57 34.177330 -118.367082 227 1640ft 129kts
16-May-20 10:58 34.150968 -118.399482 226 2474ft 140kts
16-May-20 10:59 34.124865 -118.431144 226 3650ft 125kts
16-May-20 11:00 34.102045 -118.458340 225 4909ft 110kts
16-May-20 11:01 34.081296 -118.483463 227 6026ft 106kts
16-May-20 11:02 34.096679 -118.504253 347 7054ft 109kts
16-May-20 11:03 34.126546 -118.502372 8 8019ft 109kts
16-May-20 11:04 34.157272 -118.497221 8 8867ft 118kts
16-May-20 11:05 34.191914 -118.491671 10 9595ft 131kts
16-May-20 11:06 34.229095 -118.485606 9 10309ft 138kts
16-May-20 11:07 34.267643 -118.479311 9 11014ft 141kts
16-May-20 11:08 34.306677 -118.472940 9 11716ft 141kts
16-May-20 11:09 34.345592 -118.466581 9 12412ft 141kts
16-May-20 11:10 34.383375 -118.458223 37 13104ft 134kts
16-May-20 11:11 34.406105 -118.423329 54 13716ft 134kts
16-May-20 11:12 34.428981 -118.387235 55 14272ft 138kts
16-May-20 11:13 34.452147 -118.350350 55 14855ft 139kts
16-May-20 11:14 34.477714 -118.309489 55 14986ft 166kts
16-May-20 11:15 34.506849 -118.262920 55 14994ft 175kts
16-May-20 11:16 34.536141 -118.216219 55 15006ft 172kts
16-May-20 11:17 34.565049 -118.169985 55 15014ft 172kts
16-May-20 11:18 34.594003 -118.123599 55 15016ft 172kts
16-May-20 11:19 34.622952 -118.077160 55 15018ft 172kts
16-May-20 11:20 34.635248 -118.023275 83 15016ft 169kts
16-May-20 11:21 34.641979 -117.966710 84 15012ft 169kts
16-May-20 11:22 34.648217 -117.909795 84 15010ft 172kts
16-May-20 11:23 34.654714 -117.849855 85 15000ft 182kts
16-May-20 11:24 34.661394 -117.788097 85 14998ft 185kts
16-May-20 11:25 34.673674 -117.726795 75 15000ft 188kts
16-May-20 11:26 34.689083 -117.666033 75 15003ft 188kts
16-May-20 11:27 34.704644 -117.605263 75 15008ft 188kts
16-May-20 11:28 34.720220 -117.544323 75 15009ft 188kts
16-May-20 11:29 34.735711 -117.483581 75 15009ft 188kts
16-May-20 11:30 34.751263 -117.422452 75 15009ft 188kts
16-May-20 11:31 34.766628 -117.361934 75 15046ft 187kts
16-May-20 11:32 34.782055 -117.301009 75 15042ft 188kts
16-May-20 11:33 34.797499 -117.239879 75 15036ft 189kts
16-May-20 11:34 34.812908 -117.178745 75 15027ft 189kts
16-May-20 11:35 34.828306 -117.117509 75 15016ft 189kts
16-May-20 11:36 34.843692 -117.056175 75 15009ft 189kts
16-May-20 11:37 34.859104 -116.994591 76 15004ft 190kts
16-May-20 11:38 34.874442 -116.933155 76 15001ft 190kts
16-May-20 11:39 34.889851 -116.871282 76 15001ft 191kts
16-May-20 11:40 34.905275 -116.809201 76 15001ft 191kts
16-May-20 11:41 34.920593 -116.747403 77 15001ft 191kts
16-May-20 11:42 34.935922 -116.685493 77 15001ft 190kts
16-May-20 11:43 34.951161 -116.623763 77 15001ft 190kts
16-May-20 11:44 34.969174 -116.563343 63 15004ft 192kts
16-May-20 11:45 34.994516 -116.506033 66 15005ft 191kts
16-May-20 11:46 35.019794 -116.449001 66 15007ft 190kts
16-May-20 11:47 35.044905 -116.392328 66 14844ft 198kts
16-May-20 11:48 35.072806 -116.329126 66 13764ft 217kts
16-May-20 11:49 35.101496 -116.264281 65 12578ft 214kts
16-May-20 11:50 35.129571 -116.200640 65 11368ft 210kts
16-May-20 11:51 35.156329 -116.139980 65 10685ft 200kts
16-May-20 11:52 35.182790 -116.079754 65 10182ft 201kts
16-May-20 11:53 35.208731 -116.020718 65 10005ft 190kts
16-May-20 11:54 35.233251 -115.964755 65 10007ft 184kts
16-May-20 11:55 35.257344 -115.909650 65 10008ft 183kts
16-May-20 11:56 35.281194 -115.855026 65 10012ft 181kts
16-May-20 11:57 35.304817 -115.800834 65 10016ft 179kts
16-May-20 11:58 35.336471 -115.753011 51 9937ft 185kts
16-May-20 11:59 35.370232 -115.707617 51 10024ft 178kts
16-May-20 12:00 35.403828 -115.662738 50 10026ft 178kts
16-May-20 12:01 35.437294 -115.618020 50 10026ft 178kts
16-May-20 12:02 35.470827 -115.573158 50 10026ft 178kts
16-May-20 12:03 35.504306 -115.528306 50 10026ft 178kts
16-May-20 12:04 35.537675 -115.483568 50 10026ft 178kts
16-May-20 12:05 35.571164 -115.438619 50 10026ft 178kts
16-May-20 12:06 35.604544 -115.393752 50 10026ft 178kts
16-May-20 12:07 35.637749 -115.349062 51 10026ft 178kts
16-May-20 12:08 35.671289 -115.303861 51 10028ft 178kts
16-May-20 12:09 35.704787 -115.258656 51 10028ft 178kts
16-May-20 12:10 35.738172 -115.213543 51 10028ft 178kts
16-May-20 12:11 35.778977 -115.177259 24 9632ft 201kts
16-May-20 12:12 35.833633 -115.153936 21 8689ft 209kts
16-May-20 12:13 35.887674 -115.131570 21 7749ft 200kts
16-May-20 12:14 35.937381 -115.110652 21 7233ft 182kts
16-May-20 12:15 35.983713 -115.090902 21 7012ft 168kts
16-May-20 12:16 36.027573 -115.072232 21 6838ft 172kts
16-May-20 12:17 36.074134 -115.052446 21 6346ft 180kts
16-May-20 12:18 36.122088 -115.033357 6 5715ft 189kts
16-May-20 12:19 36.172925 -115.051484 319 4728ft 195kts
16-May-20 12:21 36.181576 -115.097277 239 3655ft 126kts
16-May-20 12:22 36.157927 -115.122402 201 3455ft 120kts
16-May-20 12:23 36.124520 -115.142250 202 2707ft 136kts
16-May-20 12:24 36.098155 -115.157303 204 2115ft 83kts
16-May-20 12:25 36.089233 -115.163020 293 2125ft 7kts
16-May-20 12:26 36.089407 -115.163493 310 2126ft 0kts
16-May-20 12:27 36.089638 -115.164134 289 2128ft 12kts
16-May-20 12:28 36.096374 -115.160732 26 2098ft 31kts
16-May-20 12:29 36.099993 -115.159817 31 2091ft 0kts

Navigation Log

Ident Type
Flight plan parsing failed, navigation log unavailable